Weather at Patton Air Park

Public forecast

Using degrees Fahrenheit for public forecast. Weather courtesy of forecast.io.

Closest aviation weather report (METAR) to Patton Air Park

Closest report is Stinson Municipal Airport, 14.3 nm (26.5 km) NW.

2024/07/22 09:53 (retrieved 47 minutes ago)

KSSF 220953Z AUTO 13004KT 10SM CLR 25/23 A2995 RMK AO2 SLP127 T02500233

Closest aviation forecast (TAF) to Patton Air Park

Closest forecast is Stinson Municipal Airport, 14.3 nm (26.5 km) NW.

2024/07/22 06:22 (retrieved 4 hours ago)

TAF KSSF 220520Z 2206/2306 VRB03KT P6SM BKN150 TEMPO 2210/2214 BKN015 FM222000 VRB05KT P6SM VCTS SCT040CB BKN100 TEMPO 2221/2301 VRB15G25KT 3SM TSRA BKN025CB FM230400 11005KT P6SM BKN060